Time;durP1;ratioP1;P1;durP2;ratioP2;P2;SDS_P1;SDS_P2;PMS_P1;PMS_P2;Temp;Humidity;BMP_temperature;BMP_pressure;BME280_temperature;BME280_humidity;BME280_pressure;Samples;Min_cycle;Max_cycle;Signal;HPM_P1;HPM_P2
2022/04/30 00:00:09;;;;;;;16.48;9.32;;;;;;;8.71;78.26;101670.16;5117950;28;20084;-76
2022/04/30 00:02:34;;;;;;;20.05;9.93;;;;;;;8.55;79.51;101666.28;5099267;28;20057;-76
2022/04/30 00:05:00;;;;;;;16.98;9.13;;;;;;;8.62;78.71;101666.97;5117604;28;20449;-76
2022/04/30 00:07:26;;;;;;;21.17;10.02;;;;;;;8.57;78.94;101658.59;5118020;28;20039;-76
2022/04/30 00:09:51;;;;;;;17.35;8.93;;;;;;;8.61;78.99;101654.22;5085100;28;20036;-76
2022/04/30 00:12:17;;;;;;;22.75;10.60;;;;;;;8.51;79.66;101656.84;5087605;28;20387;-75
2022/04/30 00:14:43;;;;;;;18.92;9.82;;;;;;;8.49;79.82;101661.78;5117750;28;20023;-76
2022/04/30 00:17:09;;;;;;;22.88;10.82;;;;;;;8.34;80.86;101665.09;5078809;28;20393;-75
2022/04/30 00:19:34;;;;;;;21.27;10.60;;;;;;;8.38;80.54;101660.72;5099309;28;20027;-75
2022/04/30 00:22:00;;;;;;;17.80;10.13;;;;;;;8.31;81.04;101670.31;5117506;28;20039;-75
2022/04/30 00:24:26;;;;;;;21.48;10.50;;;;;;;8.27;81.23;101665.28;5117469;28;20092;-75
2022/04/30 00:26:52;;;;;;;16.15;9.60;;;;;;;8.28;81.00;101666.13;5099126;28;20028;-75
2022/04/30 00:29:17;;;;;;;15.45;9.60;;;;;;;8.23;81.31;101663.25;5117280;28;20034;-76
2022/04/30 00:31:43;;;;;;;22.63;11.07;;;;;;;8.09;82.79;101667.44;5098935;28;20036;-75
2022/04/30 00:34:09;;;;;;;16.50;10.27;;;;;;;8.13;82.36;101671.38;5098177;28;20035;-76
2022/04/30 00:36:35;;;;;;;19.05;10.25;;;;;;;8.13;82.15;101669.44;5117382;28;20091;-75
2022/04/30 00:39:00;;;;;;;19.83;10.57;;;;;;;8.10;82.07;101669.94;5117374;28;20540;-76
2022/04/30 00:41:26;;;;;;;17.75;10.52;;;;;;;8.04;82.64;101676.47;5098945;28;20092;-75
2022/04/30 00:43:53;;;;;;;22.58;11.90;;;;;;;7.97;83.46;101673.03;5117174;28;20384;-76
2022/04/30 00:46:19;;;;;;;16.63;9.90;;;;;;;8.07;82.16;101664.91;5116975;28;20053;-75
2022/04/30 00:48:45;;;;;;;18.13;10.40;;;;;;;8.08;82.17;101661.06;5079255;28;20032;-75
2022/04/30 00:51:13;;;;;;;25.90;12.07;;;;;;;8.02;82.97;101660.13;5078567;28;20034;-75
2022/04/30 00:53:39;;;;;;;19.20;10.65;;;;;;;8.04;82.35;101651.56;5111322;28;20088;-75
2022/04/30 00:56:09;;;;;;;17.02;9.90;;;;;;;8.05;82.19;101653.22;5061926;28;20733;-75
2022/04/30 00:58:34;;;;;;;18.95;11.90;;;;;;;8.00;82.99;101665.06;5112219;28;20027;-75
2022/04/30 01:01:00;;;;;;;26.02;11.50;;;;;;;7.88;83.71;101667.03;5081804;28;20036;-75
2022/04/30 01:03:26;;;;;;;25.65;11.30;;;;;;;7.87;84.03;101664.53;5116292;28;20028;-75
2022/04/30 01:05:52;;;;;;;21.83;10.88;;;;;;;7.84;83.86;101663.09;5098560;28;20036;-75
2022/04/30 01:08:19;;;;;;;20.30;10.68;;;;;;;7.90;82.91;101661.28;5097036;28;20050;-75
2022/04/30 01:10:44;;;;;;;21.17;10.02;;;;;;;7.89;82.83;101663.22;5070234;28;20046;-76
2022/04/30 01:13:12;;;;;;;17.58;9.63;;;;;;;8.01;81.52;101665.91;5063281;28;20028;-76
2022/04/30 01:15:39;;;;;;;19.88;10.65;;;;;;;8.00;82.16;101664.25;5116973;28;20031;-76
2022/04/30 01:18:07;;;;;;;20.63;10.43;;;;;;;8.00;81.69;101661.47;5065138;28;20020;-76
2022/04/30 01:20:32;;;;;;;18.35;10.20;;;;;;;7.92;82.48;101659.09;5078243;28;20032;-76
2022/04/30 01:23:02;;;;;;;18.48;10.90;;;;;;;7.99;81.58;101660.59;5063866;28;20076;-75
2022/04/30 01:25:30;;;;;;;23.38;12.07;;;;;;;7.83;83.29;101659.50;5078854;28;20054;-75
2022/04/30 01:27:56;;;;;;;16.98;10.48;;;;;;;7.89;82.39;101659.59;5098451;28;20042;-75
2022/04/30 01:30:22;;;;;;;17.65;10.18;;;;;;;7.89;81.94;101654.06;5081687;28;20488;-76
2022/04/30 01:38:33;;;;;;;26.45;12.77;;;;;;;7.59;84.84;101653.22;5044235;28;20028;-76
2022/04/30 01:40:59;;;;;;;26.60;13.02;;;;;;;7.46;86.29;101658.19;5073430;28;20039;-76
2022/04/30 01:43:24;;;;;;;28.52;13.45;;;;;;;7.32;87.41;101658.47;5098392;28;20058;-75
2022/04/30 01:45:50;;;;;;;24.98;12.43;;;;;;;7.36;86.68;101648.63;5117799;28;20384;-75
2022/04/30 01:48:16;;;;;;;24.35;11.73;;;;;;;7.34;86.41;101648.03;5101936;28;20483;-75
2022/04/30 01:50:42;;;;;;;20.58;11.05;;;;;;;7.42;84.92;101641.28;5102066;28;20024;-75
2022/04/30 01:53:08;;;;;;;22.08;11.10;;;;;;;7.49;84.28;101630.06;5102357;28;20027;-75
2022/04/30 01:55:34;;;;;;;22.73;11.00;;;;;;;7.53;83.69;101642.31;5102245;28;20043;-75
2022/04/30 01:57:59;;;;;;;19.33;10.48;;;;;;;7.48;84.18;101639.44;5102173;28;20036;-74
2022/04/30 02:00:25;;;;;;;23.10;12.88;;;;;;;7.26;87.05;101637.34;5085157;28;20031;-74
2022/04/30 02:02:53;;;;;;;20.33;11.40;;;;;;;7.31;85.95;101637.47;5116755;28;20038;-74
2022/04/30 02:05:19;;;;;;;21.45;9.93;;;;;;;7.30;85.39;101633.03;5101676;28;20091;-74
2022/04/30 02:07:57;;;;;;;21.42;10.43;;;;;;;7.32;85.92;101630.00;5101687;28;20605;-74
2022/04/30 02:10:23;;;;;;;25.83;12.35;;;;;;;7.32;86.09;101624.47;5088312;28;20030;-74
2022/04/30 02:12:51;;;;;;;20.40;11.68;;;;;;;7.24;85.92;101628.47;5097113;28;20032;-74
2022/04/30 02:15:17;;;;;;;22.25;10.68;;;;;;;7.25;85.66;101632.09;5081437;28;20062;-75
2022/04/30 02:17:43;;;;;;;22.17;12.27;;;;;;;7.24;85.92;101630.38;5093637;28;20820;-75
2022/04/30 02:22:54;;;;;;;26.40;13.75;;;;;;;7.18;86.54;101634.97;5119865;28;20026;-74
2022/04/30 02:25:21;;;;;;;17.35;10.10;;;;;;;7.30;84.10;101623.88;5119933;28;20103;-74
2022/04/30 02:28:08;;;;;;;20.20;10.95;;;;;;;7.28;84.22;101629.66;5119578;28;20070;-75
2022/04/30 02:30:36;;;;;;;22.15;12.15;;;;;;;7.28;84.23;101623.31;5101220;28;20096;-75
2022/04/30 02:33:20;;;;;;;22.13;10.77;;;;;;;7.33;83.59;101621.47;5119279;28;20027;-75
2022/04/30 02:35:45;;;;;;;20.65;10.55;;;;;;;7.38;82.73;101624.34;5119442;28;20081;-75
2022/04/30 02:38:11;;;;;;;17.67;10.00;;;;;;;7.45;82.18;101615.06;5119731;28;20024;-74
2022/04/30 02:40:38;;;;;;;21.35;9.65;;;;;;;7.47;82.05;101623.97;5119449;28;20035;-75
2022/04/30 02:43:07;;;;;;;18.23;10.13;;;;;;;7.47;82.06;101615.69;5081009;28;20032;-75
2022/04/30 02:45:35;;;;;;;17.27;9.65;;;;;;;7.48;81.22;101620.94;5096156;28;20028;-75
2022/04/30 02:48:02;;;;;;;17.90;9.50;;;;;;;7.49;80.94;101624.53;5101137;28;20032;-75
2022/04/30 02:50:28;;;;;;;16.67;10.25;;;;;;;7.50;80.81;101623.47;5101229;28;20035;-75
2022/04/30 02:52:56;;;;;;;20.63;10.23;;;;;;;7.47;80.93;101623.97;5084640;28;20039;-75
2022/04/30 02:55:22;;;;;;;18.85;10.38;;;;;;;7.48;80.60;101611.81;5100899;28;20044;-76
2022/04/30 03:00:43;;;;;;;18.13;9.82;;;;;;;7.42;80.93;101626.63;5088002;28;20648;-75
2022/04/30 03:03:09;;;;;;;21.45;10.48;;;;;;;7.37;81.30;101622.66;5067146;28;20028;-75
2022/04/30 03:05:35;;;;;;;21.17;10.02;;;;;;;7.31;81.29;101617.28;5100664;28;20483;-76
2022/04/30 03:08:04;;;;;;;19.60;10.38;;;;;;;7.30;81.26;101616.44;5100759;28;20102;-76
2022/04/30 03:10:30;;;;;;;23.08;11.57;;;;;;;7.27;81.49;101627.13;5087167;28;20027;-76
2022/04/30 03:12:55;;;;;;;15.88;10.65;;;;;;;7.26;80.90;101615.25;5100789;28;20035;-75
2022/04/30 03:15:22;;;;;;;22.15;11.45;;;;;;;7.15;82.25;101627.16;5110656;28;20039;-76
2022/04/30 03:23:16;;;;;;;16.45;10.38;;;;;;;7.12;81.48;101630.41;5103206;28;20724;-76
2022/04/30 03:25:42;;;;;;;25.48;12.52;;;;;;;7.03;82.89;101620.84;5118731;28;20040;-76
2022/04/30 03:28:07;;;;;;;20.83;10.82;;;;;;;7.07;81.71;101622.03;5099932;28;20484;-76
2022/04/30 03:30:33;;;;;;;20.58;11.20;;;;;;;7.07;81.69;101622.03;5100377;28;20032;-76
2022/04/30 03:32:58;;;;;;;20.58;10.70;;;;;;;7.13;80.97;101623.81;5118268;28;20038;-76
2022/04/30 03:35:24;;;;;;;22.73;9.93;;;;;;;7.12;80.91;101630.41;5118553;28;20031;-76
2022/04/30 03:37:49;;;;;;;16.95;9.95;;;;;;;7.11;80.94;101631.53;5100166;28;20387;-76
2022/04/30 03:40:15;;;;;;;22.90;10.98;;;;;;;7.08;80.48;101615.44;5100296;28;20030;-76
2022/04/30 03:42:40;;;;;;;14.63;9.70;;;;;;;7.11;80.29;101629.59;5100152;28;20031;-76
2022/04/30 03:45:07;;;;;;;19.95;10.30;;;;;;;7.09;79.87;101620.69;5118337;28;20027;-76
2022/04/30 03:47:32;;;;;;;18.40;9.98;;;;;;;7.07;79.97;101627.53;5099713;28;20023;-76
2022/04/30 03:49:59;;;;;;;16.40;9.93;;;;;;;7.06;79.68;101625.88;5118113;28;20034;-76
2022/04/30 03:52:24;;;;;;;18.77;9.70;;;;;;;7.00;79.91;101624.94;5079815;28;20031;-76
2022/04/30 03:54:50;;;;;;;19.20;10.40;;;;;;;6.98;79.85;101623.50;5063553;28;20036;-76
2022/04/30 03:57:15;;;;;;;17.75;10.68;;;;;;;6.94;79.91;101628.66;5097072;28;20487;-75
2022/04/30 03:59:41;;;;;;;15.70;9.52;;;;;;;6.93;80.12;101622.28;5099773;28;20027;-75
2022/04/30 04:02:07;;;;;;;16.33;9.82;;;;;;;6.92;79.55;101620.63;5099265;28;20085;-75
2022/04/30 04:04:32;;;;;;;17.02;10.07;;;;;;;6.88;79.58;101613.91;5062855;28;20028;-75
2022/04/30 04:06:58;;;;;;;15.50;8.82;;;;;;;6.85;79.34;101614.41;5115429;28;20031;-75
2022/04/30 04:09:24;;;;;;;17.80;10.77;;;;;;;6.83;79.60;101616.56;5106814;28;20514;-75
2022/04/30 04:11:49;;;;;;;18.70;10.32;;;;;;;6.81;79.52;101617.88;5110641;28;20075;-75
2022/04/30 04:19:43;;;;;;;22.42;10.30;;;;;;;6.67;79.50;101614.53;5117420;28;20097;-75
2022/04/30 04:22:08;;;;;;;18.52;9.75;;;;;;;6.64;79.24;101617.78;5099521;28;20028;-75
2022/04/30 04:27:18;;;;;;;17.02;10.23;;;;;;;6.58;79.62;101613.22;5117295;28;20042;-76
2022/04/30 04:29:44;;;;;;;16.40;9.85;;;;;;;6.58;79.25;101618.75;5117400;28;20671;-75
2022/04/30 04:32:09;;;;;;;17.90;9.38;;;;;;;6.51;79.34;101616.09;5116929;28;20502;-74
2022/04/30 04:34:35;;;;;;;19.48;10.25;;;;;;;6.51;79.17;101620.75;5117238;28;20023;-75
2022/04/30 04:37:00;;;;;;;17.92;9.70;;;;;;;6.49;79.09;101624.63;5117367;28;20034;-75
2022/04/30 04:39:26;;;;;;;17.08;9.40;;;;;;;6.41;79.30;101619.44;5099050;28;20031;-75
2022/04/30 04:41:51;;;;;;;18.63;8.98;;;;;;;6.39;79.26;101612.50;5098998;28;20028;-75
2022/04/30 04:44:17;;;;;;;17.55;10.02;;;;;;;6.33;79.57;101622.56;5117195;28;20027;-75
2022/04/30 04:46:42;;;;;;;18.63;10.88;;;;;;;6.37;79.39;101618.22;5116828;28;20027;-75
2022/04/30 04:49:08;;;;;;;15.75;10.10;;;;;;;6.31;79.28;101627.47;5116835;28;20035;-75
2022/04/30 04:51:34;;;;;;;20.60;9.82;;;;;;;6.26;79.73;101627.34;5114540;28;20031;-75
2022/04/30 04:54:03;;;;;;;18.83;10.60;;;;;;;6.25;79.80;101631.19;5116983;28;20024;-75
2022/04/30 04:56:29;;;;;;;21.40;10.70;;;;;;;6.24;80.10;101632.25;5098736;28;20055;-75
2022/04/30 04:58:55;;;;;;;20.30;10.43;;;;;;;6.29;80.03;101632.38;5099014;28;20023;-75
2022/04/30 05:01:20;;;;;;;20.42;10.50;;;;;;;6.27;80.22;101645.59;5098488;28;20034;-75
2022/04/30 05:03:46;;;;;;;18.92;10.52;;;;;;;6.23;80.34;101639.69;5116743;28;20051;-75
2022/04/30 05:06:12;;;;;;;21.45;10.85;;;;;;;6.21;80.26;101641.88;5098622;28;20039;-75
2022/04/30 05:08:37;;;;;;;18.30;10.65;;;;;;;6.22;80.77;101638.03;5116447;28;20382;-75
2022/04/30 05:11:02;;;;;;;18.33;10.32;;;;;;;6.22;80.25;101639.94;5116841;28;20491;-75
2022/04/30 05:13:28;;;;;;;18.42;9.32;;;;;;;6.22;80.44;101648.22;5099285;28;20028;-75
2022/04/30 05:15:53;;;;;;;14.90;9.80;;;;;;;6.24;80.10;101648.81;5108336;28;20024;-75
2022/04/30 05:18:20;;;;;;;19.73;10.48;;;;;;;6.27;80.34;101645.59;5116359;28;20028;-75
2022/04/30 05:20:46;;;;;;;13.75;9.70;;;;;;;6.29;80.30;101648.94;5098193;28;20023;-75
2022/04/30 05:23:11;;;;;;;15.80;9.82;;;;;;;6.33;80.79;101654.84;5116549;28;20102;-75
2022/04/30 05:25:40;;;;;;;16.38;10.02;;;;;;;6.39;80.45;101654.72;5116674;28;20058;-75
2022/04/30 05:28:06;;;;;;;16.35;9.38;;;;;;;6.43;80.56;101655.06;5116160;28;20084;-75
2022/04/30 05:30:32;;;;;;;17.23;9.60;;;;;;;6.53;80.95;101648.97;5098281;28;20039;-74
2022/04/30 05:32:57;;;;;;;18.85;10.48;;;;;;;6.61;81.32;101656.91;5116260;28;20031;-75
2022/04/30 05:35:23;;;;;;;19.63;10.25;;;;;;;6.67;81.61;101651.25;5116579;28;20027;-75
2022/04/30 05:37:48;;;;;;;15.60;9.85;;;;;;;6.72;82.15;101653.28;5098236;28;20032;-75
2022/04/30 05:40:13;;;;;;;16.83;10.10;;;;;;;6.80;82.61;101657.59;5116689;28;20484;-75
2022/04/30 05:42:39;;;;;;;21.27;11.98;;;;;;;6.87;84.22;101661.91;5097992;28;20030;-74
2022/04/30 05:45:06;;;;;;;23.45;12.27;;;;;;;6.91;88.20;101651.25;5116478;28;20053;-75
2022/04/30 05:47:31;;;;;;;22.63;12.73;;;;;;;7.03;87.87;101656.75;5097932;28;20028;-75
2022/04/30 05:49:57;;;;;;;18.23;11.40;;;;;;;7.14;88.13;101659.50;5116387;28;20019;-75
2022/04/30 05:52:22;;;;;;;22.75;11.63;;;;;;;7.26;87.84;101658.63;5116351;28;20023;-75
2022/04/30 05:54:47;;;;;;;19.50;10.85;;;;;;;7.40;86.39;101648.97;5106294;28;20035;-75
2022/04/30 05:57:13;;;;;;;23.60;12.88;;;;;;;7.53;89.30;101642.31;5112892;28;20395;-75
2022/04/30 05:59:38;;;;;;;21.35;13.20;;;;;;;7.64;90.86;101646.97;5116320;28;20039;-76
2022/04/30 06:02:04;;;;;;;21.17;10.75;;;;;;;7.81;85.43;101649.78;5097661;28;20031;-75
2022/04/30 06:04:29;;;;;;;24.50;12.45;;;;;;;7.94;86.96;101646.72;5116120;28;20036;-75
2022/04/30 06:06:55;;;;;;;21.75;12.02;;;;;;;8.12;85.98;101645.63;5077784;28;20028;-76
2022/04/30 06:09:20;;;;;;;22.10;12.10;;;;;;;8.29;86.37;101645.63;5061719;28;20464;-75
2022/04/30 06:11:47;;;;;;;18.67;11.93;;;;;;;8.46;85.30;101646.50;5078621;28;20028;-75
2022/04/30 06:14:13;;;;;;;23.45;12.20;;;;;;;8.62;86.68;101638.44;5110842;28;20058;-75
2022/04/30 06:16:38;;;;;;;20.70;11.73;;;;;;;8.80;84.85;101640.91;5097573;28;20062;-75
2022/04/30 06:19:04;;;;;;;25.00;13.13;;;;;;;8.95;85.20;101635.63;5116255;28;20667;-75
2022/04/30 06:21:29;;;;;;;24.10;12.57;;;;;;;9.05;83.65;101647.91;5097909;28;20510;-75
2022/04/30 06:23:55;;;;;;;23.85;12.68;;;;;;;9.23;83.16;101647.63;5097725;28;20078;-75
2022/04/30 06:26:20;;;;;;;24.27;11.95;;;;;;;9.37;81.85;101648.06;5115533;28;20032;-75
2022/04/30 06:28:46;;;;;;;20.10;11.50;;;;;;;9.47;81.76;101650.97;5115941;28;20679;-75
2022/04/30 06:31:12;;;;;;;21.73;12.50;;;;;;;9.67;81.27;101647.59;5115923;28;20027;-75
2022/04/30 06:33:37;;;;;;;23.55;11.60;;;;;;;9.78;80.38;101656.88;5099975;28;20034;-75
2022/04/30 06:36:03;;;;;;;20.30;11.38;;;;;;;9.93;79.66;101651.47;5119471;28;20028;-75
2022/04/30 06:38:28;;;;;;;22.40;11.43;;;;;;;10.06;79.61;101648.28;5101273;28;20031;-75
2022/04/30 06:40:54;;;;;;;23.83;12.07;;;;;;;10.21;78.50;101652.31;5067986;28;20024;-75
2022/04/30 06:43:21;;;;;;;18.73;12.15;;;;;;;10.36;77.79;101646.91;5067425;28;20023;-75
2022/04/30 06:45:46;;;;;;;24.05;12.32;;;;;;;10.50;77.11;101653.69;5084412;28;20627;-75
2022/04/30 06:48:12;;;;;;;23.73;12.38;;;;;;;10.50;76.89;101645.38;5119084;28;20032;-76
2022/04/30 06:50:37;;;;;;;21.80;12.13;;;;;;;10.66;76.55;101643.53;5090166;28;20020;-75
2022/04/30 06:58:41;;;;;;;26.23;12.45;;;;;;;11.07;75.14;101651.28;5096879;28;20036;-75
2022/04/30 07:03:55;;;;;;;21.15;11.60;;;;;;;11.30;73.23;101656.41;5101352;28;20030;-75
2022/04/30 07:06:21;;;;;;;22.77;12.35;;;;;;;11.41;73.66;101652.56;5093303;28;20031;-75
2022/04/30 07:08:46;;;;;;;20.25;11.82;;;;;;;11.53;72.92;101665.41;5095032;28;20052;-75
2022/04/30 07:11:12;;;;;;;24.45;12.43;;;;;;;11.59;72.16;101659.59;5111148;28;20027;-75
2022/04/30 07:13:37;;;;;;;17.98;11.38;;;;;;;11.72;71.56;101661.00;5121134;27;20215;-71
2022/04/30 07:16:04;;;;;;;19.00;11.55;;;;;;;11.76;71.74;101662.16;5125165;27;20042;-70
2022/04/30 07:18:30;;;;;;;22.85;11.15;;;;;;;11.91;71.10;101666.94;5116886;27;20036;-70
2022/04/30 07:20:55;;;;;;;20.20;11.60;;;;;;;11.89;71.35;101662.75;5118562;28;20039;-70
2022/04/30 07:23:21;;;;;;;22.05;12.57;;;;;;;11.98;71.22;101666.66;5117843;28;20054;-70
2022/04/30 07:25:46;;;;;;;19.00;11.95;;;;;;;12.07;70.95;101673.38;5118798;28;20036;-70
2022/04/30 07:28:12;;;;;;;23.95;12.15;;;;;;;12.13;69.76;101663.09;5049982;28;20023;-71
2022/04/30 07:30:37;;;;;;;22.35;12.02;;;;;;;12.25;70.93;101661.69;5100452;28;20042;-75
2022/04/30 07:33:03;;;;;;;21.30;12.18;;;;;;;12.35;70.49;101672.03;5046618;28;20480;-77
2022/04/30 07:35:28;;;;;;;21.27;12.15;;;;;;;12.45;70.04;101665.59;5082980;28;20028;-77
2022/04/30 07:37:54;;;;;;;27.45;12.93;;;;;;;12.54;69.45;101663.94;5079976;28;20380;-78
2022/04/30 07:40:20;;;;;;;24.23;13.18;;;;;;;12.69;69.00;101663.91;5077698;28;20036;-78
2022/04/30 07:42:45;;;;;;;21.27;13.02;;;;;;;12.74;69.49;101675.06;5098235;28;20031;-77
2022/04/30 07:45:11;;;;;;;24.63;13.20;;;;;;;12.91;68.71;101665.56;5099893;28;20020;-77
2022/04/30 07:47:36;;;;;;;24.65;13.20;;;;;;;12.92;69.19;101662.50;5099837;28;20097;-77
2022/04/30 07:50:04;;;;;;;22.35;12.45;;;;;;;13.07;68.50;101667.22;5099832;28;20092;-76
2022/04/30 07:52:29;;;;;;;21.70;13.90;;;;;;;13.00;68.11;101654.69;5116678;28;20024;-77
2022/04/30 07:54:55;;;;;;;25.27;13.63;;;;;;;13.08;68.28;101654.09;5091774;28;20027;-76
2022/04/30 07:57:20;;;;;;;26.05;13.93;;;;;;;13.06;68.48;101657.16;5099742;28;20093;-74
2022/04/30 07:59:46;;;;;;;23.35;13.98;;;;;;;13.15;67.70;101657.44;5062712;28;20508;-74
2022/04/30 08:02:12;;;;;;;24.90;13.73;;;;;;;13.21;66.95;101658.25;5081780;28;20062;-74
2022/04/30 08:04:37;;;;;;;26.55;14.40;;;;;;;13.14;66.79;101662.16;5078153;28;20122;-74
2022/04/30 08:07:03;;;;;;;26.02;14.18;;;;;;;13.10;67.53;101663.84;5061042;28;20051;-74
2022/04/30 08:09:28;;;;;;;21.85;14.43;;;;;;;13.12;67.45;101658.84;5074233;28;20020;-74
2022/04/30 08:11:54;;;;;;;23.48;14.05;;;;;;;13.18;67.31;101662.44;5063157;28;20035;-74
2022/04/30 08:14:19;;;;;;;21.58;13.18;;;;;;;13.30;67.33;101663.00;5053560;28;20031;-75
2022/04/30 08:16:45;;;;;;;29.25;15.68;;;;;;;13.38;65.53;101659.59;5061902;28;20027;-75
2022/04/30 08:19:10;;;;;;;23.00;14.98;;;;;;;13.26;65.02;101652.66;5052646;28;20016;-75
2022/04/30 08:21:37;;;;;;;28.58;15.93;;;;;;;13.40;67.27;101651.78;5048226;28;20020;-75
2022/04/30 08:24:04;;;;;;;26.42;15.43;;;;;;;13.50;67.03;101650.91;5065758;28;20464;-75
2022/04/30 08:26:30;;;;;;;29.95;17.00;;;;;;;13.59;65.85;101651.13;5045277;28;20024;-75
2022/04/30 08:28:55;;;;;;;27.40;16.80;;;;;;;13.70;65.45;101649.13;5054327;28;20073;-76
2022/04/30 08:31:21;;;;;;;30.35;17.77;;;;;;;13.69;64.81;101651.09;5077981;28;20025;-75
2022/04/30 08:33:46;;;;;;;28.40;18.67;;;;;;;13.70;62.90;101643.53;5089395;28;20036;-75
2022/04/30 08:36:14;;;;;;;32.95;20.33;;;;;;;13.70;62.16;101657.50;5091758;28;20031;-75
2022/04/30 08:38:40;;;;;;;34.63;22.85;;;;;;;13.61;61.01;101660.91;5078811;28;20034;-75
2022/04/30 08:41:09;;;;;;;36.63;23.02;;;;;;;13.51;61.06;101655.38;5076156;28;20044;-75
2022/04/30 08:43:38;;;;;;;38.60;23.73;;;;;;;13.51;62.98;101649.81;5078498;28;20052;-74
2022/04/30 08:46:04;;;;;;;41.55;25.42;;;;;;;13.36;61.64;101653.47;5098476;28;20475;-74
2022/04/30 08:48:30;;;;;;;38.55;23.90;;;;;;;13.37;62.31;101657.09;5091699;27;20096;-74
2022/04/30 08:50:56;;;;;;;43.08;26.13;;;;;;;13.31;62.47;101653.47;5118126;28;20044;-71
2022/04/30 08:53:21;;;;;;;37.45;25.83;;;;;;;13.30;63.00;101648.22;5116426;28;20038;-72
2022/04/30 08:55:47;;;;;;;38.33;25.50;;;;;;;13.15;62.80;101655.47;5115454;28;20155;-71
2022/04/30 08:58:13;;;;;;;44.03;24.05;;;;;;;13.05;63.04;101657.47;5098288;28;20036;-70
2022/04/30 09:00:40;;;;;;;37.15;25.50;;;;;;;12.91;62.33;101660.81;5116100;28;20046;-70
2022/04/30 09:03:05;;;;;;;39.88;24.98;;;;;;;12.88;63.14;101655.00;5097636;28;20027;-71
2022/04/30 09:05:32;;;;;;;41.75;24.48;;;;;;;12.82;64.57;101654.16;5057346;28;20028;-75
2022/04/30 09:07:59;;;;;;;38.50;23.30;;;;;;;12.88;64.21;101655.00;5032493;28;20051;-75
2022/04/30 09:10:26;;;;;;;34.80;23.63;;;;;;;12.88;64.30;101649.41;5061765;28;20036;-75
2022/04/30 09:12:52;;;;;;;40.70;22.98;;;;;;;12.85;63.96;101649.97;5079732;28;20085;-75
2022/04/30 09:15:18;;;;;;;40.08;24.92;;;;;;;12.83;64.75;101646.63;5116154;28;20112;-72
2022/04/30 09:17:44;;;;;;;37.50;24.27;;;;;;;12.69;63.60;101652.78;5115820;28;20028;-74
2022/04/30 09:20:17;;;;;;;42.25;25.02;;;;;;;12.79;63.89;101653.88;5060823;28;20059;-75
2022/04/30 09:22:42;;;;;;;39.45;26.38;;;;;;;12.86;64.67;101643.28;5064161;28;20030;-75
2022/04/30 09:25:15;;;;;;;35.47;23.73;;;;;;;12.84;64.55;101645.50;5077833;28;20411;-75
2022/04/30 09:27:51;;;;;;;39.20;25.38;;;;;;;12.85;64.92;101641.63;5077936;28;20027;-72
2022/04/30 09:30:26;;;;;;;39.20;25.58;;;;;;;12.95;63.63;101636.84;5060628;28;20047;-74
2022/04/30 09:33:05;;;;;;;39.13;24.92;;;;;;;13.00;64.30;101636.00;5077704;28;20099;-74
2022/04/30 09:38:19;;;;;;;39.65;24.90;;;;;;;13.22;63.69;101640.38;5080498;28;20024;-74
2022/04/30 09:40:58;;;;;;;40.97;25.42;;;;;;;13.18;63.26;101632.59;5062720;28;20024;-74
2022/04/30 09:43:30;;;;;;;39.10;25.52;;;;;;;13.23;63.33;101636.47;5048446;28;20036;-74
2022/04/30 09:46:00;;;;;;;34.55;25.15;;;;;;;13.22;63.86;101627.28;5060589;28;20024;-75
2022/04/30 09:53:57;;;;;;;38.22;25.20;;;;;;;13.12;62.81;101639.31;5083454;28;20496;-74
2022/04/30 09:56:34;;;;;;;41.80;25.33;;;;;;;13.14;64.18;101637.06;5060866;28;20070;-74
2022/04/30 09:59:07;;;;;;;35.72;24.55;;;;;;;13.13;64.89;101637.34;5059474;28;20059;-76
2022/04/30 10:01:34;;;;;;;36.05;24.83;;;;;;;13.17;64.15;101630.91;5098435;28;20451;-75
2022/04/30 10:04:05;;;;;;;38.38;24.65;;;;;;;13.16;64.13;101629.25;5077373;28;20059;-75
2022/04/30 10:06:30;;;;;;;38.85;24.23;;;;;;;13.18;65.50;101632.59;5079917;28;20028;-74
2022/04/30 10:08:56;;;;;;;41.05;25.98;;;;;;;13.29;64.72;101627.00;5084958;28;20019;-74
2022/04/30 10:11:44;;;;;;;40.63;26.60;;;;;;;13.34;65.04;101630.59;5065014;28;20499;-75
2022/04/30 10:14:34;;;;;;;40.63;25.27;;;;;;;13.44;64.14;101624.16;5043677;28;20119;-74
2022/04/30 10:20:04;;;;;;;39.30;26.08;;;;;;;13.49;62.07;101618.53;5086113;28;20112;-74
2022/04/30 10:22:30;;;;;;;39.33;25.30;;;;;;;13.48;61.13;101618.81;5086331;28;20036;-75
2022/04/30 10:24:57;;;;;;;36.38;25.08;;;;;;;13.46;61.32;101619.13;5119986;28;20031;-74
2022/04/30 10:27:23;;;;;;;39.67;26.20;;;;;;;13.52;62.67;101617.97;5081439;28;20027;-74
2022/04/30 10:29:55;;;;;;;38.20;24.95;;;;;;;13.54;60.50;101618.53;5080739;28;20559;-74
2022/04/30 10:32:31;;;;;;;37.83;23.05;;;;;;;13.54;61.68;101614.88;5081076;28;20020;-74
2022/04/30 10:34:57;;;;;;;36.38;24.17;;;;;;;13.60;61.51;101613.75;5088758;28;20106;-74
2022/04/30 10:37:32;;;;;;;32.25;22.48;;;;;;;13.69;61.84;101597.22;5084410;28;20055;-74
2022/04/30 10:39:59;;;;;;;34.67;23.55;;;;;;;13.76;62.47;101601.38;5101628;28;20512;-74
2022/04/30 10:42:34;;;;;;;38.78;25.10;;;;;;;13.84;62.68;101591.53;5101509;28;20058;-74
2022/04/30 10:44:59;;;;;;;34.38;22.77;;;;;;;13.99;62.06;101588.63;5119600;28;20089;-74
2022/04/30 10:47:25;;;;;;;35.20;24.10;;;;;;;14.12;62.45;101580.72;5100879;28;20032;-74
2022/04/30 10:49:51;;;;;;;34.10;23.85;;;;;;;14.27;62.28;101577.78;5084537;28;20028;-75
2022/04/30 10:52:21;;;;;;;33.33;21.83;;;;;;;14.44;60.67;101580.16;5084239;28;20031;-74
2022/04/30 10:54:48;;;;;;;35.72;21.65;;;;;;;14.52;60.06;101574.78;5101498;28;20107;-74
2022/04/30 10:57:14;;;;;;;33.15;22.10;;;;;;;14.61;61.38;101576.94;5119558;28;20040;-73
2022/04/30 10:59:39;;;;;;;36.17;23.20;;;;;;;14.64;60.79;101582.78;5119301;28;20024;-72
2022/04/30 11:02:05;;;;;;;37.47;23.52;;;;;;;14.67;60.26;101573.78;5118834;28;20032;-72
2022/04/30 11:04:30;;;;;;;33.25;22.67;;;;;;;14.67;60.55;101571.00;5103304;28;20020;-77
2022/04/30 11:06:56;;;;;;;34.00;23.73;;;;;;;14.75;59.59;101573.13;5119088;28;20383;-76
2022/04/30 11:09:22;;;;;;;34.30;23.55;;;;;;;14.78;58.67;101563.31;5090532;28;20031;-76
2022/04/30 11:11:49;;;;;;;37.10;23.45;;;;;;;14.97;60.51;101558.63;5075214;28;20032;-76
2022/04/30 11:14:17;;;;;;;34.83;22.75;;;;;;;15.03;60.12;101552.97;5091398;28;20083;-74
2022/04/30 11:16:46;;;;;;;36.40;24.08;;;;;;;15.14;59.57;101551.72;5100772;28;20061;-72
2022/04/30 11:19:23;;;;;;;31.80;23.58;;;;;;;15.20;58.53;101553.31;5117966;28;20020;-72
2022/04/30 11:21:53;;;;;;;32.40;21.48;;;;;;;15.30;58.05;101558.78;5118974;28;20047;-72
2022/04/30 11:24:23;;;;;;;33.72;22.80;;;;;;;15.38;58.54;101551.69;5118625;28;20023;-73
2022/04/30 11:26:55;;;;;;;33.70;23.48;;;;;;;15.34;57.86;101554.22;5100835;28;20035;-73
2022/04/30 11:29:21;;;;;;;35.40;22.27;;;;;;;15.51;56.91;101538.88;5100219;28;20383;-73
2022/04/30 11:31:49;;;;;;;31.45;22.35;;;;;;;15.62;56.60;101538.41;5099999;28;20035;-72
2022/04/30 11:34:18;;;;;;;35.53;23.88;;;;;;;15.69;58.04;101542.88;5083531;28;20035;-73
2022/04/30 11:36:46;;;;;;;35.50;22.92;;;;;;;15.78;57.13;101536.25;5100760;28;20034;-72
2022/04/30 11:39:12;;;;;;;31.15;21.50;;;;;;;15.89;57.57;101524.91;5118454;28;20471;-73
2022/04/30 11:41:41;;;;;;;32.67;24.38;;;;;;;15.95;56.45;101526.47;5118523;28;20024;-73
2022/04/30 11:44:10;;;;;;;33.03;22.23;;;;;;;15.93;56.28;101529.56;5118232;28;20028;-73
2022/04/30 11:46:37;;;;;;;31.75;22.15;;;;;;;16.03;55.88;101515.41;5099851;28;20476;-73
2022/04/30 11:49:19;;;;;;;32.90;21.83;;;;;;;16.05;55.71;101517.91;5118320;28;20472;-73
2022/04/30 11:51:45;;;;;;;30.15;21.85;;;;;;;16.13;55.84;101511.59;5072477;28;20040;-73
2022/04/30 11:54:12;;;;;;;36.63;23.30;;;;;;;16.14;56.98;101509.63;5085118;28;20047;-73
2022/04/30 11:56:37;;;;;;;35.40;23.13;;;;;;;16.06;55.48;101506.38;5091554;28;20048;-73